sensor_id;sensor_type;location;lat;lon;timestamp;pressure;altitude;pressure_sealevel;temperature;humidity
51460;BME280;37534;39.772;2.718;2023-02-16T00:02:41;102644.41;;;6.72;100.00
51460;BME280;37534;39.772;2.718;2023-02-16T00:05:54;102641.47;;;6.55;100.00
51460;BME280;37534;39.772;2.718;2023-02-16T00:08:13;102653.28;;;6.48;100.00
51460;BME280;37534;39.772;2.718;2023-02-16T00:10:39;102643.88;;;6.47;100.00
51460;BME280;37534;39.772;2.718;2023-02-16T00:13:19;102637.75;;;6.40;100.00
51460;BME280;37534;39.772;2.718;2023-02-16T00:16:04;102652.31;;;6.43;100.00
51460;BME280;37534;39.772;2.718;2023-02-16T00:18:30;102649.00;;;6.47;100.00
51460;BME280;37534;39.772;2.718;2023-02-16T00:20:55;102648.81;;;6.38;100.00
51460;BME280;37534;39.772;2.718;2023-02-16T00:23:21;102643.56;;;6.33;100.00
51460;BME280;37534;39.772;2.718;2023-02-16T00:25:46;102648.72;;;6.35;100.00
51460;BME280;37534;39.772;2.718;2023-02-16T00:28:15;102647.00;;;6.34;100.00
51460;BME280;37534;39.772;2.718;2023-02-16T00:30:42;102647.06;;;6.37;100.00
51460;BME280;37534;39.772;2.718;2023-02-16T00:33:13;102649.72;;;6.40;100.00
51460;BME280;37534;39.772;2.718;2023-02-16T00:35:40;102647.94;;;6.37;100.00
51460;BME280;37534;39.772;2.718;2023-02-16T00:38:06;102647.03;;;6.35;100.00
51460;BME280;37534;39.772;2.718;2023-02-16T00:40:32;102643.78;;;6.42;100.00
51460;BME280;37534;39.772;2.718;2023-02-16T00:42:58;102652.41;;;6.46;100.00
51460;BME280;37534;39.772;2.718;2023-02-16T00:45:25;102653.13;;;6.40;100.00
51460;BME280;37534;39.772;2.718;2023-02-16T00:47:51;102653.72;;;6.28;100.00
51460;BME280;37534;39.772;2.718;2023-02-16T00:50:26;102656.34;;;6.32;100.00
51460;BME280;37534;39.772;2.718;2023-02-16T00:52:52;102651.09;;;6.25;100.00
51460;BME280;37534;39.772;2.718;2023-02-16T00:55:21;102655.53;;;6.33;100.00
51460;BME280;37534;39.772;2.718;2023-02-16T00:57:52;102646.91;;;6.31;100.00
51460;BME280;37534;39.772;2.718;2023-02-16T01:00:50;102655.44;;;6.30;100.00
51460;BME280;37534;39.772;2.718;2023-02-16T01:03:23;102644.06;;;6.17;100.00
51460;BME280;37534;39.772;2.718;2023-02-16T01:05:49;102639.91;;;6.23;100.00
51460;BME280;37534;39.772;2.718;2023-02-16T01:08:35;102636.44;;;6.21;100.00
51460;BME280;37534;39.772;2.718;2023-02-16T01:11:19;102633.94;;;6.23;100.00
51460;BME280;37534;39.772;2.718;2023-02-16T01:13:49;102645.13;;;6.26;100.00
51460;BME280;37534;39.772;2.718;2023-02-16T01:16:24;102637.53;;;6.31;100.00
51460;BME280;37534;39.772;2.718;2023-02-16T01:18:51;102645.19;;;6.30;100.00
51460;BME280;37534;39.772;2.718;2023-02-16T01:21:17;102638.94;;;6.17;100.00
51460;BME280;37534;39.772;2.718;2023-02-16T01:23:42;102634.75;;;6.20;100.00
51460;BME280;37534;39.772;2.718;2023-02-16T01:26:16;102634.53;;;6.13;100.00
51460;BME280;37534;39.772;2.718;2023-02-16T01:28:43;102647.44;;;6.16;100.00
51460;BME280;37534;39.772;2.718;2023-02-16T01:31:10;102648.38;;;6.19;100.00
51460;BME280;37534;39.772;2.718;2023-02-16T01:33:36;102643.16;;;6.16;100.00
51460;BME280;37534;39.772;2.718;2023-02-16T01:36:03;102638.97;;;6.18;100.00
51460;BME280;37534;39.772;2.718;2023-02-16T01:38:29;102645.81;;;6.19;100.00
51460;BME280;37534;39.772;2.718;2023-02-16T01:41:12;102639.34;;;6.35;100.00
51460;BME280;37534;39.772;2.718;2023-02-16T01:43:57;102633.16;;;6.27;100.00
51460;BME280;37534;39.772;2.718;2023-02-16T01:47:25;102638.56;;;6.38;100.00
51460;BME280;37534;39.772;2.718;2023-02-16T01:49:48;102631.75;;;6.40;100.00
51460;BME280;37534;39.772;2.718;2023-02-16T01:55:40;102634.75;;;6.20;100.00
51460;BME280;37534;39.772;2.718;2023-02-16T01:57:44;102621.69;;;6.09;100.00
51460;BME280;37534;39.772;2.718;2023-02-16T02:02:47;102626.06;;;6.15;100.00
51460;BME280;37534;39.772;2.718;2023-02-16T02:05:26;102625.22;;;6.15;100.00
51460;BME280;37534;39.772;2.718;2023-02-16T02:08:09;102626.97;;;6.17;100.00
51460;BME280;37534;39.772;2.718;2023-02-16T02:10:44;102631.47;;;6.27;100.00
51460;BME280;37534;39.772;2.718;2023-02-16T02:13:25;102629.53;;;6.17;100.00
51460;BME280;37534;39.772;2.718;2023-02-16T02:15:55;102623.47;;;6.14;100.00
51460;BME280;37534;39.772;2.718;2023-02-16T02:18:21;102616.81;;;6.20;100.00
51460;BME280;37534;39.772;2.718;2023-02-16T02:26:54;102619.59;;;6.31;100.00
51460;BME280;37534;39.772;2.718;2023-02-16T02:38:26;102611.19;;;6.00;100.00
51460;BME280;37534;39.772;2.718;2023-02-16T02:41:25;102607.16;;;6.10;100.00
51460;BME280;37534;39.772;2.718;2023-02-16T02:44:16;102595.41;;;6.18;100.00
51460;BME280;37534;39.772;2.718;2023-02-16T02:46:44;102589.22;;;6.10;100.00
51460;BME280;37534;39.772;2.718;2023-02-16T02:49:11;102593.38;;;6.05;100.00
51460;BME280;37534;39.772;2.718;2023-02-16T02:51:36;102586.75;;;6.13;100.00
51460;BME280;37534;39.772;2.718;2023-02-16T02:54:12;102602.03;;;6.10;100.00
51460;BME280;37534;39.772;2.718;2023-02-16T02:57:17;102597.72;;;6.09;100.00
51460;BME280;37534;39.772;2.718;2023-02-16T03:00:17;102600.09;;;6.00;100.00
51460;BME280;37534;39.772;2.718;2023-02-16T03:03:23;102600.03;;;5.98;100.00
51460;BME280;37534;39.772;2.718;2023-02-16T03:06:06;102576.66;;;5.86;100.00
51460;BME280;37534;39.772;2.718;2023-02-16T03:08:37;102593.91;;;5.93;100.00
51460;BME280;37534;39.772;2.718;2023-02-16T03:11:11;102589.59;;;5.90;100.00
51460;BME280;37534;39.772;2.718;2023-02-16T03:14:21;102594.03;;;5.96;100.00
51460;BME280;37534;39.772;2.718;2023-02-16T03:17:10;102595.31;;;6.15;100.00
51460;BME280;37534;39.772;2.718;2023-02-16T03:19:57;102589.97;;;6.04;100.00
51460;BME280;37534;39.772;2.718;2023-02-16T03:22:43;102593.44;;;6.08;100.00
51460;BME280;37534;39.772;2.718;2023-02-16T03:25:31;102590.88;;;6.08;100.00
51460;BME280;37534;39.772;2.718;2023-02-16T03:28:20;102593.66;;;6.17;100.00
51460;BME280;37534;39.772;2.718;2023-02-16T03:31:06;102583.94;;;6.04;100.00
51460;BME280;37534;39.772;2.718;2023-02-16T03:33:32;102587.22;;;5.98;100.00
51460;BME280;37534;39.772;2.718;2023-02-16T03:35:59;102595.03;;;6.03;100.00
51460;BME280;37534;39.772;2.718;2023-02-16T03:38:25;102591.50;;;5.98;100.00
51460;BME280;37534;39.772;2.718;2023-02-16T03:40:51;102579.50;;;5.97;100.00
51460;BME280;37534;39.772;2.718;2023-02-16T03:43:17;102592.28;;;5.95;100.00
51460;BME280;37534;39.772;2.718;2023-02-16T03:45:43;102584.88;;;6.07;100.00
51460;BME280;37534;39.772;2.718;2023-02-16T03:48:10;102576.50;;;6.13;100.00
51460;BME280;37534;39.772;2.718;2023-02-16T03:50:36;102582.47;;;6.14;100.00
51460;BME280;37534;39.772;2.718;2023-02-16T03:53:02;102577.19;;;6.07;100.00
51460;BME280;37534;39.772;2.718;2023-02-16T03:55:43;102593.56;;;6.14;100.00
51460;BME280;37534;39.772;2.718;2023-02-16T03:58:13;102588.25;;;6.05;100.00
51460;BME280;37534;39.772;2.718;2023-02-16T04:00:39;102583.69;;;5.95;100.00
51460;BME280;37534;39.772;2.718;2023-02-16T04:03:05;102601.84;;;6.01;100.00
51460;BME280;37534;39.772;2.718;2023-02-16T04:05:31;102594.06;;;5.98;100.00
51460;BME280;37534;39.772;2.718;2023-02-16T04:07:57;102591.59;;;6.01;100.00
51460;BME280;37534;39.772;2.718;2023-02-16T04:10:23;102583.81;;;5.98;100.00
51460;BME280;37534;39.772;2.718;2023-02-16T04:12:49;102593.28;;;6.02;100.00
51460;BME280;37534;39.772;2.718;2023-02-16T04:15:17;102597.00;;;6.13;100.00
51460;BME280;37534;39.772;2.718;2023-02-16T04:17:43;102599.00;;;6.28;100.00
51460;BME280;37534;39.772;2.718;2023-02-16T04:20:12;102586.94;;;6.22;100.00
51460;BME280;37534;39.772;2.718;2023-02-16T04:22:38;102595.38;;;6.17;100.00
51460;BME280;37534;39.772;2.718;2023-02-16T04:25:04;102597.88;;;6.15;100.00
51460;BME280;37534;39.772;2.718;2023-02-16T04:27:30;102585.19;;;6.21;100.00
51460;BME280;37534;39.772;2.718;2023-02-16T04:29:56;102597.34;;;6.30;100.00
51460;BME280;37534;39.772;2.718;2023-02-16T04:32:21;102585.84;;;6.13;100.00
51460;BME280;37534;39.772;2.718;2023-02-16T04:34:47;102596.84;;;6.07;100.00
51460;BME280;37534;39.772;2.718;2023-02-16T04:37:13;102600.16;;;6.03;100.00
51460;BME280;37534;39.772;2.718;2023-02-16T04:39:38;102591.50;;;5.98;100.00
51460;BME280;37534;39.772;2.718;2023-02-16T04:42:04;102588.13;;;5.99;100.00
51460;BME280;37534;39.772;2.718;2023-02-16T04:44:30;102582.09;;;5.98;100.00
51460;BME280;37534;39.772;2.718;2023-02-16T04:46:55;102593.38;;;6.05;100.00
51460;BME280;37534;39.772;2.718;2023-02-16T04:49:21;102592.63;;;6.11;100.00
51460;BME280;37534;39.772;2.718;2023-02-16T04:51:47;102595.41;;;6.20;100.00
51460;BME280;37534;39.772;2.718;2023-02-16T04:54:12;102600.53;;;6.18;100.00
51460;BME280;37534;39.772;2.718;2023-02-16T04:56:38;102596.19;;;6.16;100.00
51460;BME280;37534;39.772;2.718;2023-02-16T04:59:04;102600.25;;;6.06;100.00
51460;BME280;37534;39.772;2.718;2023-02-16T05:01:29;102614.69;;;6.04;100.00
51460;BME280;37534;39.772;2.718;2023-02-16T05:03:55;102614.69;;;6.04;100.00
51460;BME280;37534;39.772;2.718;2023-02-16T05:06:21;102605.41;;;6.09;100.00
51460;BME280;37534;39.772;2.718;2023-02-16T05:08:46;102615.22;;;6.27;100.00
51460;BME280;37534;39.772;2.718;2023-02-16T05:11:12;102615.00;;;6.18;100.00
51460;BME280;37534;39.772;2.718;2023-02-16T05:13:57;102606.19;;;6.05;100.00
51460;BME280;37534;39.772;2.718;2023-02-16T05:16:43;102613.00;;;6.04;100.00
51460;BME280;37534;39.772;2.718;2023-02-16T05:19:09;102609.81;;;6.13;100.00
51460;BME280;37534;39.772;2.718;2023-02-16T05:21:34;102619.19;;;6.14;100.00
51460;BME280;37534;39.772;2.718;2023-02-16T05:24:03;102619.00;;;6.05;100.00
51460;BME280;37534;39.772;2.718;2023-02-16T05:26:29;102619.78;;;6.01;100.00
51460;BME280;37534;39.772;2.718;2023-02-16T05:28:55;102627.50;;;6.04;100.00
51460;BME280;37534;39.772;2.718;2023-02-16T05:31:22;102621.47;;;6.02;100.00
51460;BME280;37534;39.772;2.718;2023-02-16T05:33:48;102620.50;;;5.97;100.00
51460;BME280;37534;39.772;2.718;2023-02-16T05:36:13;102623.03;;;5.95;100.00
51460;BME280;37534;39.772;2.718;2023-02-16T05:38:39;102615.34;;;5.95;100.00
51460;BME280;37534;39.772;2.718;2023-02-16T05:41:05;102629.25;;;6.05;100.00
51460;BME280;37534;39.772;2.718;2023-02-16T05:43:30;102624.69;;;6.30;100.00
51460;BME280;37534;39.772;2.718;2023-02-16T05:45:56;102635.81;;;6.30;100.00
51460;BME280;37534;39.772;2.718;2023-02-16T05:48:21;102620.09;;;6.15;100.00
51460;BME280;37534;39.772;2.718;2023-02-16T05:50:47;102629.47;;;6.14;100.00
51460;BME280;37534;39.772;2.718;2023-02-16T05:53:13;102626.84;;;6.13;100.00
51460;BME280;37534;39.772;2.718;2023-02-16T05:55:38;102627.00;;;6.19;100.00
51460;BME280;37534;39.772;2.718;2023-02-16T05:58:04;102621.84;;;6.17;100.00
51460;BME280;37534;39.772;2.718;2023-02-16T06:00:29;102626.28;;;6.24;100.00
51460;BME280;37534;39.772;2.718;2023-02-16T06:02:59;102632.50;;;6.36;100.00
51460;BME280;37534;39.772;2.718;2023-02-16T06:05:25;102634.78;;;6.23;100.00
51460;BME280;37534;39.772;2.718;2023-02-16T06:07:51;102632.31;;;6.26;100.00
51460;BME280;37534;39.772;2.718;2023-02-16T06:10:16;102627.25;;;6.30;100.00
51460;BME280;37534;39.772;2.718;2023-02-16T06:12:43;102627.09;;;6.23;100.00
51460;BME280;37534;39.772;2.718;2023-02-16T06:15:09;102622.66;;;6.16;100.00
51460;BME280;37534;39.772;2.718;2023-02-16T06:17:35;102631.97;;;6.13;100.00
51460;BME280;37534;39.772;2.718;2023-02-16T06:20:00;102625.22;;;6.16;100.00
51460;BME280;37534;39.772;2.718;2023-02-16T06:22:26;102636.31;;;6.15;100.00
51460;BME280;37534;39.772;2.718;2023-02-16T06:24:52;102644.09;;;6.18;100.00
51460;BME280;37534;39.772;2.718;2023-02-16T06:27:17;102632.91;;;6.16;100.00
51460;BME280;37534;39.772;2.718;2023-02-16T06:29:43;102626.94;;;6.16;100.00
51460;BME280;37534;39.772;2.718;2023-02-16T06:32:09;102626.41;;;6.29;100.00
51460;BME280;37534;39.772;2.718;2023-02-16T06:34:34;102647.75;;;6.30;100.00
51460;BME280;37534;39.772;2.718;2023-02-16T06:37:00;102652.00;;;6.27;100.00
51460;BME280;37534;39.772;2.718;2023-02-16T06:39:25;102634.88;;;6.26;100.00
51460;BME280;37534;39.772;2.718;2023-02-16T06:41:51;102647.75;;;6.30;100.00
51460;BME280;37534;39.772;2.718;2023-02-16T06:44:16;102646.25;;;6.38;100.00
51460;BME280;37534;39.772;2.718;2023-02-16T06:46:44;102661.06;;;6.51;100.00
51460;BME280;37534;39.772;2.718;2023-02-16T06:49:15;102667.28;;;6.61;100.00
51460;BME280;37534;39.772;2.718;2023-02-16T06:51:42;102658.66;;;6.57;100.00
51460;BME280;37534;39.772;2.718;2023-02-16T06:54:08;102664.50;;;6.53;100.00
51460;BME280;37534;39.772;2.718;2023-02-16T06:56:34;102665.38;;;6.54;100.00
51460;BME280;37534;39.772;2.718;2023-02-16T06:59:00;102668.91;;;6.57;100.00
51460;BME280;37534;39.772;2.718;2023-02-16T07:01:26;102680.22;;;6.67;100.00
51460;BME280;37534;39.772;2.718;2023-02-16T07:03:53;102685.47;;;6.72;100.00
51460;BME280;37534;39.772;2.718;2023-02-16T07:06:19;102672.25;;;6.55;100.00
51460;BME280;37534;39.772;2.718;2023-02-16T07:08:45;102678.25;;;6.55;100.00
51460;BME280;37534;39.772;2.718;2023-02-16T07:11:11;102681.72;;;6.57;100.00
51460;BME280;37534;39.772;2.718;2023-02-16T07:13:37;102679.50;;;6.74;100.00
51460;BME280;37534;39.772;2.718;2023-02-16T07:16:04;102691.44;;;6.72;100.00
51460;BME280;37534;39.772;2.718;2023-02-16T07:18:30;102690.63;;;6.75;100.00
51460;BME280;37534;39.772;2.718;2023-02-16T07:20:56;102702.19;;;6.95;100.00
51460;BME280;37534;39.772;2.718;2023-02-16T07:23:22;102690.19;;;6.94;100.00
51460;BME280;37534;39.772;2.718;2023-02-16T07:25:47;102699.00;;;7.06;100.00
51460;BME280;37534;39.772;2.718;2023-02-16T07:28:13;102701.81;;;7.18;100.00
51460;BME280;37534;39.772;2.718;2023-02-16T07:30:39;102708.84;;;7.28;100.00
51460;BME280;37534;39.772;2.718;2023-02-16T07:33:05;102712.44;;;7.36;100.00
51460;BME280;37534;39.772;2.718;2023-02-16T07:35:32;102708.19;;;7.38;100.00
51460;BME280;37534;39.772;2.718;2023-02-16T07:37:58;102714.44;;;7.53;100.00
51460;BME280;37534;39.772;2.718;2023-02-16T07:40:24;102703.44;;;7.60;100.00
51460;BME280;37534;39.772;2.718;2023-02-16T07:42:50;102717.50;;;7.79;100.00
51460;BME280;37534;39.772;2.718;2023-02-16T07:45:15;102720.38;;;7.96;100.00
51460;BME280;37534;39.772;2.718;2023-02-16T07:47:41;102721.44;;;8.09;100.00
51460;BME280;37534;39.772;2.718;2023-02-16T07:50:07;102724.97;;;8.17;100.00
51460;BME280;37534;39.772;2.718;2023-02-16T07:52:33;102730.44;;;8.35;100.00
51460;BME280;37534;39.772;2.718;2023-02-16T07:54:59;102729.00;;;8.51;100.00
51460;BME280;37534;39.772;2.718;2023-02-16T07:57:26;102730.00;;;8.63;100.00
51460;BME280;37534;39.772;2.718;2023-02-16T07:59:53;102742.25;;;8.79;100.00
51460;BME280;37534;39.772;2.718;2023-02-16T08:02:22;102743.31;;;8.92;100.00
51460;BME280;37534;39.772;2.718;2023-02-16T08:04:48;102752.94;;;9.07;100.00
51460;BME280;37534;39.772;2.718;2023-02-16T08:07:15;102749.69;;;9.23;100.00
51460;BME280;37534;39.772;2.718;2023-02-16T08:09:41;102744.66;;;9.32;100.00
51460;BME280;37534;39.772;2.718;2023-02-16T08:12:10;102752.53;;;9.43;100.00
51460;BME280;37534;39.772;2.718;2023-02-16T08:14:37;102757.94;;;9.66;100.00
51460;BME280;37534;39.772;2.718;2023-02-16T08:17:04;102771.03;;;9.91;100.00
51460;BME280;37534;39.772;2.718;2023-02-16T08:19:30;102767.69;;;9.98;100.00
51460;BME280;37534;39.772;2.718;2023-02-16T08:21:57;102759.44;;;10.36;100.00
51460;BME280;37534;39.772;2.718;2023-02-16T08:24:22;102757.94;;;10.66;100.00
51460;BME280;37534;39.772;2.718;2023-02-16T08:26:50;102770.13;;;10.86;100.00
51460;BME280;37534;39.772;2.718;2023-02-16T08:29:18;102767.59;;;10.99;100.00
51460;BME280;37534;39.772;2.718;2023-02-16T08:31:45;102765.94;;;11.11;100.00
51460;BME280;37534;39.772;2.718;2023-02-16T08:34:13;102772.91;;;11.29;100.00
51460;BME280;37534;39.772;2.718;2023-02-16T08:36:42;102766.91;;;11.44;100.00
51460;BME280;37534;39.772;2.718;2023-02-16T08:39:19;102759.19;;;11.57;100.00
51460;BME280;37534;39.772;2.718;2023-02-16T08:41:47;102759.22;;;11.60;100.00
51460;BME280;37534;39.772;2.718;2023-02-16T08:44:14;102770.47;;;11.83;100.00
51460;BME280;37534;39.772;2.718;2023-02-16T08:46:42;102765.31;;;11.89;100.00
51460;BME280;37534;39.772;2.718;2023-02-16T08:49:08;102772.25;;;12.17;100.00
51460;BME280;37534;39.772;2.718;2023-02-16T08:51:41;102768.81;;;12.11;100.00
51460;BME280;37534;39.772;2.718;2023-02-16T08:54:07;102759.31;;;12.27;100.00
51460;BME280;37534;39.772;2.718;2023-02-16T08:56:34;102767.06;;;12.65;100.00
51460;BME280;37534;39.772;2.718;2023-02-16T08:59:00;102772.06;;;13.24;100.00
51460;BME280;37534;39.772;2.718;2023-02-16T09:01:26;102777.38;;;14.40;100.00
51460;BME280;37534;39.772;2.718;2023-02-16T09:03:51;102770.94;;;16.11;100.00
51460;BME280;37534;39.772;2.718;2023-02-16T09:06:19;102784.63;;;17.97;88.45
51460;BME280;37534;39.772;2.718;2023-02-16T09:08:52;102787.47;;;18.24;72.90
51460;BME280;37534;39.772;2.718;2023-02-16T09:11:20;102784.56;;;19.00;71.15
51460;BME280;37534;39.772;2.718;2023-02-16T09:13:46;102783.66;;;19.03;64.49
51460;BME280;37534;39.772;2.718;2023-02-16T09:16:14;102793.41;;;19.28;68.47
51460;BME280;37534;39.772;2.718;2023-02-16T09:18:41;102784.03;;;18.89;64.34
51460;BME280;37534;39.772;2.718;2023-02-16T09:21:18;102794.19;;;19.00;65.57
51460;BME280;37534;39.772;2.718;2023-02-16T09:23:46;102796.88;;;19.28;62.19
51460;BME280;37534;39.772;2.718;2023-02-16T09:26:13;102795.75;;;19.65;64.35
51460;BME280;37534;39.772;2.718;2023-02-16T09:28:40;102787.88;;;20.47;61.13
51460;BME280;37534;39.772;2.718;2023-02-16T09:33:44;102804.63;;;21.84;53.14
51460;BME280;37534;39.772;2.718;2023-02-16T09:36:11;102793.38;;;22.24;51.73
51460;BME280;37534;39.772;2.718;2023-02-16T09:38:38;102801.56;;;22.38;50.45
51460;BME280;37534;39.772;2.718;2023-02-16T09:44:17;102815.22;;;22.05;48.61
51460;BME280;37534;39.772;2.718;2023-02-16T09:46:43;102816.19;;;21.58;48.95
51460;BME280;37534;39.772;2.718;2023-02-16T09:49:36;102801.19;;;21.15;49.78
51460;BME280;37534;39.772;2.718;2023-02-16T09:54:55;102810.22;;;20.84;51.27
51460;BME280;37534;39.772;2.718;2023-02-16T09:59:56;102812.59;;;21.37;50.48
51460;BME280;37534;39.772;2.718;2023-02-16T10:02:47;102822.34;;;22.85;44.19
51460;BME280;37534;39.772;2.718;2023-02-16T10:05:28;102810.88;;;25.51;40.73
51460;BME280;37534;39.772;2.718;2023-02-16T10:07:59;102828.34;;;27.60;35.67
51460;BME280;37534;39.772;2.718;2023-02-16T10:10:42;102818.59;;;27.73;34.87
51460;BME280;37534;39.772;2.718;2023-02-16T10:13:28;102815.09;;;29.76;32.39
51460;BME280;37534;39.772;2.718;2023-02-16T10:15:59;102821.03;;;31.28;29.46
51460;BME280;37534;39.772;2.718;2023-02-16T10:18:30;102820.81;;;31.32;27.97
51460;BME280;37534;39.772;2.718;2023-02-16T10:21:01;102823.00;;;31.26;27.40
51460;BME280;37534;39.772;2.718;2023-02-16T10:29:04;102817.22;;;31.86;27.11
51460;BME280;37534;39.772;2.718;2023-02-16T10:31:42;102818.94;;;32.60;24.78
51460;BME280;37534;39.772;2.718;2023-02-16T10:34:35;102818.16;;;32.69;23.34
51460;BME280;37534;39.772;2.718;2023-02-16T10:47:47;102818.63;;;32.01;25.04
51460;BME280;37534;39.772;2.718;2023-02-16T10:52:42;102803.34;;;31.71;25.26
51460;BME280;37534;39.772;2.718;2023-02-16T10:55:10;102800.94;;;30.23;26.76
51460;BME280;37534;39.772;2.718;2023-02-16T10:57:37;102806.44;;;28.49;28.27
51460;BME280;37534;39.772;2.718;2023-02-16T11:00:08;102808.56;;;28.31;29.87
51460;BME280;37534;39.772;2.718;2023-02-16T11:02:44;102795.34;;;29.07;27.99
51460;BME280;37534;39.772;2.718;2023-02-16T11:05:35;102805.84;;;30.51;27.14
51460;BME280;37534;39.772;2.718;2023-02-16T11:08:03;102803.41;;;31.05;26.08
51460;BME280;37534;39.772;2.718;2023-02-16T11:10:42;102803.78;;;31.76;25.69
51460;BME280;37534;39.772;2.718;2023-02-16T11:15:51;102809.22;;;31.86;25.44
51460;BME280;37534;39.772;2.718;2023-02-16T11:18:42;102810.59;;;32.74;24.79
51460;BME280;37534;39.772;2.718;2023-02-16T11:21:10;102798.13;;;32.94;24.44
51460;BME280;37534;39.772;2.718;2023-02-16T11:23:43;102793.13;;;33.21;24.22
51460;BME280;37534;39.772;2.718;2023-02-16T11:28:45;102789.91;;;33.46;23.75
51460;BME280;37534;39.772;2.718;2023-02-16T11:34:09;102778.47;;;33.54;23.67
51460;BME280;37534;39.772;2.718;2023-02-16T11:36:44;102782.72;;;33.57;24.07
51460;BME280;37534;39.772;2.718;2023-02-16T11:41:49;102781.16;;;33.83;23.74
51460;BME280;37534;39.772;2.718;2023-02-16T11:44:32;102779.38;;;34.21;23.63
51460;BME280;37534;39.772;2.718;2023-02-16T11:47:01;102766.63;;;35.16;22.08
51460;BME280;37534;39.772;2.718;2023-02-16T11:51:54;102761.38;;;34.79;21.87
51460;BME280;37534;39.772;2.718;2023-02-16T11:54:20;102771.53;;;35.39;22.04
51460;BME280;37534;39.772;2.718;2023-02-16T11:57:06;102760.22;;;34.81;22.36
51460;BME280;37534;39.772;2.718;2023-02-16T11:59:36;102767.31;;;33.88;23.15
51460;BME280;37534;39.772;2.718;2023-02-16T12:02:28;102760.56;;;32.96;24.04
51460;BME280;37534;39.772;2.718;2023-02-16T12:05:29;102758.13;;;32.12;25.32
51460;BME280;37534;39.772;2.718;2023-02-16T12:11:20;102753.78;;;30.59;27.33
51460;BME280;37534;39.772;2.718;2023-02-16T12:26:00;102738.34;;;27.44;31.46
51460;BME280;37534;39.772;2.718;2023-02-16T12:28:52;102732.25;;;27.56;32.16
51460;BME280;37534;39.772;2.718;2023-02-16T12:31:52;102731.88;;;27.21;32.38
51460;BME280;37534;39.772;2.718;2023-02-16T12:34:36;102731.03;;;26.21;34.34
51460;BME280;37534;39.772;2.718;2023-02-16T12:45:37;102717.41;;;26.27;35.91
51460;BME280;37534;39.772;2.718;2023-02-16T12:50:35;102725.47;;;26.40;35.72
51460;BME280;37534;39.772;2.718;2023-02-16T12:55:43;102715.53;;;27.81;34.03
51460;BME280;37534;39.772;2.718;2023-02-16T12:58:17;102714.22;;;27.61;33.80
51460;BME280;37534;39.772;2.718;2023-02-16T13:11:37;102680.50;;;22.98;41.77
51460;BME280;37534;39.772;2.718;2023-02-16T13:14:17;102709.22;;;22.84;42.18
51460;BME280;37534;39.772;2.718;2023-02-16T13:16:55;102698.69;;;22.65;43.36
51460;BME280;37534;39.772;2.718;2023-02-16T13:19:23;102686.16;;;22.32;44.62
51460;BME280;37534;39.772;2.718;2023-02-16T13:22:06;102692.03;;;22.95;44.07
51460;BME280;37534;39.772;2.718;2023-02-16T13:43:33;102654.75;;;25.99;37.88
51460;BME280;37534;39.772;2.718;2023-02-16T13:46:58;102657.41;;;25.69;37.18
51460;BME280;37534;39.772;2.718;2023-02-16T13:49:00;102657.75;;;25.48;37.75
51460;BME280;37534;39.772;2.718;2023-02-16T13:51:27;102664.59;;;25.67;37.56
51460;BME280;37534;39.772;2.718;2023-02-16T13:54:04;102660.22;;;26.53;35.90
51460;BME280;37534;39.772;2.718;2023-02-16T13:56:32;102654.63;;;27.80;34.34
51460;BME280;37534;39.772;2.718;2023-02-16T14:01:49;102649.03;;;28.73;32.23
51460;BME280;37534;39.772;2.718;2023-02-16T14:10:05;102649.84;;;27.19;33.48
51460;BME280;37534;39.772;2.718;2023-02-16T14:12:36;102646.56;;;25.29;35.76
51460;BME280;37534;39.772;2.718;2023-02-16T14:15:15;102631.19;;;23.73;39.17
51460;BME280;37534;39.772;2.718;2023-02-16T14:17:42;102633.25;;;23.14;39.77
51460;BME280;37534;39.772;2.718;2023-02-16T14:22:54;102635.03;;;21.57;44.54
51460;BME280;37534;39.772;2.718;2023-02-16T14:25:31;102646.50;;;21.95;44.85
51460;BME280;37534;39.772;2.718;2023-02-16T14:30:56;102636.72;;;21.99;46.48
51460;BME280;37534;39.772;2.718;2023-02-16T14:36:22;102644.81;;;21.31;49.53
51460;BME280;37534;39.772;2.718;2023-02-16T14:38:53;102650.28;;;21.03;51.58
51460;BME280;37534;39.772;2.718;2023-02-16T14:43:49;102650.78;;;20.91;52.72
51460;BME280;37534;39.772;2.718;2023-02-16T14:57:30;102647.41;;;18.50;65.21
51460;BME280;37534;39.772;2.718;2023-02-16T15:00:02;102652.59;;;18.51;66.31
51460;BME280;37534;39.772;2.718;2023-02-16T15:02:34;102645.34;;;18.61;65.12
51460;BME280;37534;39.772;2.718;2023-02-16T15:05:33;102652.41;;;18.89;64.72
51460;BME280;37534;39.772;2.718;2023-02-16T15:08:21;102650.22;;;18.73;64.47
51460;BME280;37534;39.772;2.718;2023-02-16T15:10:51;102644.97;;;18.43;65.64
51460;BME280;37534;39.772;2.718;2023-02-16T15:13:27;102643.97;;;18.16;67.33
51460;BME280;37534;39.772;2.718;2023-02-16T15:15:56;102646.97;;;18.02;68.58
51460;BME280;37534;39.772;2.718;2023-02-16T15:18:27;102647.50;;;17.45;73.21
51460;BME280;37534;39.772;2.718;2023-02-16T15:20:55;102647.41;;;17.48;71.52
51460;BME280;37534;39.772;2.718;2023-02-16T15:23:30;102645.47;;;17.92;70.44
51460;BME280;37534;39.772;2.718;2023-02-16T15:26:04;102650.38;;;18.04;68.92
51460;BME280;37534;39.772;2.718;2023-02-16T15:28:31;102646.50;;;17.85;69.49
51460;BME280;37534;39.772;2.718;2023-02-16T15:31:01;102647.53;;;17.79;70.92
51460;BME280;37534;39.772;2.718;2023-02-16T15:33:41;102633.25;;;17.94;70.82
51460;BME280;37534;39.772;2.718;2023-02-16T15:36:15;102641.97;;;17.93;70.78
51460;BME280;37534;39.772;2.718;2023-02-16T15:41:25;102648.25;;;17.50;73.15
51460;BME280;37534;39.772;2.718;2023-02-16T15:43:51;102637.84;;;17.13;75.99
51460;BME280;37534;39.772;2.718;2023-02-16T15:46:39;102646.25;;;16.86;78.70
51460;BME280;37534;39.772;2.718;2023-02-16T15:49:13;102650.03;;;16.70;79.59